createdAt,value
2018-11-27T00:02:58.640Z,82914.00
2018-11-27T00:08:02.464Z,82911.00
2018-11-27T00:13:06.338Z,82907.00
2018-11-27T00:18:10.148Z,82900.00
2018-11-27T00:23:13.955Z,82893.00
2018-11-27T00:28:17.752Z,82890.00
2018-11-27T00:33:21.619Z,82888.00
2018-11-27T00:38:25.449Z,82883.00
2018-11-27T00:43:29.271Z,82877.00
2018-11-27T00:48:33.305Z,82884.00
2018-11-27T00:53:37.156Z,82879.00
2018-11-27T00:58:40.975Z,82871.00
2018-11-27T01:03:45.060Z,82856.00
2018-11-27T01:08:51.787Z,82857.00
2018-11-27T01:13:55.821Z,82861.00
2018-11-27T01:18:59.644Z,82859.00
2018-11-27T01:24:03.455Z,82859.00
2018-11-27T01:29:07.313Z,82854.00
2018-11-27T01:34:11.179Z,82859.00
2018-11-27T01:39:15.024Z,82853.00
2018-11-27T01:44:19.088Z,82850.00
2018-11-27T01:49:22.963Z,82855.00
2018-11-27T01:54:26.814Z,82850.00
2018-11-27T01:59:30.916Z,82854.00
2018-11-27T02:04:35.053Z,82848.00
2018-11-27T02:09:38.920Z,82840.00
2018-11-27T02:14:42.735Z,82838.00
2018-11-27T02:19:46.575Z,82834.00
2018-11-27T02:24:50.657Z,82837.00
2018-11-27T02:29:54.491Z,82827.00
2018-11-27T02:34:58.320Z,82822.00
2018-11-27T02:40:02.372Z,82811.00
2018-11-27T02:45:09.064Z,82813.00
2018-11-27T02:50:14.817Z,82796.00
2018-11-27T02:55:26.223Z,82796.00
2018-11-27T03:00:30.019Z,82802.00
2018-11-27T03:05:35.790Z,82803.00
2018-11-27T03:10:39.821Z,82799.00
2018-11-27T03:15:43.624Z,82775.00
2018-11-27T03:20:47.442Z,82774.00
2018-11-27T03:25:51.251Z,82774.00
2018-11-27T03:30:55.084Z,82760.00
2018-11-27T03:35:58.929Z,82746.00
2018-11-27T03:41:03.009Z,82731.00
2018-11-27T03:46:07.565Z,82725.00
2018-11-27T03:51:11.637Z,82720.00
2018-11-27T03:56:15.456Z,82698.00
2018-11-27T04:01:19.289Z,82690.00
2018-11-27T04:06:23.136Z,82684.00
2018-11-27T04:11:27.229Z,82670.00
2018-11-27T04:16:31.059Z,82676.00
2018-11-27T04:21:34.872Z,82669.00
2018-11-27T04:26:38.736Z,82665.00
2018-11-27T04:31:42.880Z,82656.00
2018-11-27T04:36:46.691Z,82648.00
2018-11-27T04:41:50.503Z,82585.00
2018-11-27T04:46:54.315Z,82635.00
2018-11-27T04:51:58.132Z,82630.00
2018-11-27T04:57:01.972Z,82609.00
2018-11-27T05:02:06.603Z,82601.00
2018-11-27T05:07:10.544Z,82601.00
2018-11-27T05:12:14.603Z,82600.00
2018-11-27T05:17:18.420Z,82602.00
2018-11-27T05:22:22.331Z,82608.00
2018-11-27T05:27:26.191Z,82596.00
2018-11-27T05:32:30.266Z,82586.00
2018-11-27T05:37:34.078Z,82576.00
2018-11-27T05:42:37.927Z,82570.00
2018-11-27T05:47:42.074Z,82572.00
2018-11-27T05:52:46.233Z,82558.00
2018-11-27T05:57:51.347Z,82558.00
2018-11-27T06:02:57.473Z,82543.00
2018-11-27T06:08:00.201Z,82530.00
2018-11-27T06:13:04.016Z,82519.00
2018-11-27T06:18:07.895Z,82516.00
2018-11-27T06:23:11.755Z,82501.00
2018-11-27T06:28:15.584Z,82509.00
2018-11-27T06:33:19.448Z,82510.00
2018-11-27T06:38:23.570Z,82524.00
2018-11-27T06:43:27.676Z,82537.00
2018-11-27T06:48:31.779Z,82535.00
2018-11-27T06:53:35.601Z,82552.00
2018-11-27T06:58:39.468Z,82563.00
2018-11-27T07:03:43.563Z,82570.00
2018-11-27T07:08:47.646Z,82573.00
2018-11-27T07:13:51.446Z,82562.00
2018-11-27T07:18:55.292Z,82577.00
2018-11-27T07:23:59.084Z,82586.00
2018-11-27T07:29:02.875Z,82602.00
2018-11-27T07:34:06.940Z,82613.00
2018-11-27T07:39:11.071Z,82614.00
2018-11-27T07:44:15.208Z,82627.00
2018-11-27T07:49:19.251Z,82638.00
2018-11-27T07:54:23.170Z,82649.00
2018-11-27T07:59:27.007Z,82660.00
2018-11-27T08:04:30.819Z,82640.00
2018-11-27T08:09:34.872Z,82648.00
2018-11-27T08:14:38.696Z,82663.00
2018-11-27T08:19:42.777Z,82654.00
2018-11-27T08:24:47.315Z,82687.00
2018-11-27T08:29:50.648Z,82702.00
2018-11-27T08:34:54.543Z,82732.00
2018-11-27T08:39:59.211Z,82725.00
2018-11-27T08:45:03.063Z,82736.00
2018-11-27T08:50:19.457Z,82732.00
2018-11-27T08:55:24.616Z,82743.00
2018-11-27T09:00:28.713Z,82770.00
2018-11-27T09:05:32.526Z,82772.00
2018-11-27T09:10:36.519Z,82759.00
2018-11-27T09:15:40.340Z,82766.00
2018-11-27T09:20:44.195Z,82781.00
2018-11-27T09:25:48.026Z,82795.00
2018-11-27T09:30:52.572Z,82826.00
2018-11-27T09:35:57.597Z,82832.00
2018-11-27T09:41:01.419Z,82839.00
2018-11-27T09:46:05.520Z,82840.00
2018-11-27T09:51:09.612Z,82845.00
2018-11-27T09:56:13.582Z,82846.00
2018-11-27T10:01:17.402Z,82850.00
2018-11-27T10:06:21.510Z,82842.00
2018-11-27T10:11:25.322Z,82851.00
2018-11-27T10:16:29.127Z,82867.00
2018-11-27T10:21:33.160Z,82860.00
2018-11-27T10:26:37.273Z,82861.00
2018-11-27T10:31:41.529Z,82882.00
2018-11-27T10:36:45.592Z,82900.00
2018-11-27T10:41:49.424Z,82901.00
2018-11-27T10:46:53.259Z,82912.00
2018-11-27T10:51:57.078Z,82927.00
2018-11-27T10:57:00.887Z,82937.00
2018-11-27T11:02:10.381Z,82928.00
2018-11-27T11:07:14.180Z,82945.00
2018-11-27T11:12:17.999Z,82952.00
2018-11-27T11:17:21.815Z,82978.00
2018-11-27T11:22:25.617Z,82962.00
2018-11-27T11:27:29.490Z,82943.00
2018-11-27T11:32:33.304Z,82943.00
2018-11-27T11:37:37.122Z,82934.00
2018-11-27T11:42:40.998Z,82941.00
2018-11-27T11:47:45.036Z,82954.00
2018-11-27T11:52:50.231Z,82953.00
2018-11-27T11:57:54.087Z,82945.00
2018-11-27T12:02:57.919Z,82944.00
2018-11-27T12:08:01.726Z,82933.00
2018-11-27T12:13:06.978Z,82927.00
2018-11-27T12:18:10.858Z,82932.00
2018-11-27T12:23:14.663Z,82927.00
2018-11-27T12:28:18.462Z,82928.00
2018-11-27T12:33:22.299Z,82929.00
2018-11-27T12:38:26.134Z,82941.00
2018-11-27T12:43:29.959Z,82928.00
2018-11-27T12:48:34.055Z,82933.00
2018-11-27T12:53:38.494Z,82921.00
2018-11-27T12:58:42.338Z,82934.00
2018-11-27T13:03:46.222Z,82955.00
2018-11-27T13:08:50.047Z,82941.00
2018-11-27T13:13:53.874Z,82930.00
2018-11-27T13:18:58.003Z,82938.00
2018-11-27T13:24:01.877Z,82938.00
2018-11-27T13:29:06.359Z,82940.00
2018-11-27T13:34:12.035Z,82903.00
2018-11-27T13:39:31.276Z,82937.00
2018-11-27T13:44:35.131Z,82935.00
2018-11-27T13:49:38.976Z,82940.00
2018-11-27T13:54:43.814Z,82943.00
2018-11-27T13:59:47.933Z,82939.00
2018-11-27T14:04:51.764Z,82944.00
2018-11-27T14:09:55.883Z,82942.00
2018-11-27T14:14:59.710Z,82936.00
2018-11-27T14:20:03.823Z,82934.00
2018-11-27T14:25:09.575Z,82927.00
2018-11-27T14:30:15.482Z,82921.00
2018-11-27T14:35:20.868Z,82906.00
2018-11-27T14:40:26.862Z,82909.00
2018-11-27T14:45:30.659Z,82897.00
2018-11-27T14:50:34.447Z,82868.00
2018-11-27T14:55:38.520Z,82890.00
2018-11-27T15:00:42.373Z,82895.00
2018-11-27T15:05:46.407Z,82883.00
2018-11-27T15:10:50.455Z,82871.00
2018-11-27T15:15:54.259Z,82865.00
2018-11-27T15:20:58.315Z,82854.00
2018-11-27T15:26:02.147Z,82832.00
2018-11-27T15:31:06.702Z,82825.00
2018-11-27T15:36:10.609Z,82809.00
2018-11-27T15:41:14.449Z,82794.00
2018-11-27T15:46:18.299Z,82776.00
2018-11-27T15:51:22.231Z,82749.00
2018-11-27T15:56:26.077Z,82714.00
2018-11-27T16:01:30.204Z,82702.00
2018-11-27T16:06:34.009Z,82686.00
2018-11-27T16:11:38.621Z,82675.00
2018-11-27T16:16:42.771Z,82673.00
2018-11-27T16:21:46.604Z,82660.00
2018-11-27T16:26:50.435Z,82644.00
2018-11-27T16:31:54.361Z,82634.00
2018-11-27T16:42:12.343Z,82613.00
2018-11-27T16:47:15.072Z,82604.00
2018-11-27T16:52:18.879Z,82610.00
2018-11-27T16:57:22.754Z,82603.00
2018-11-27T17:02:27.192Z,82632.00
2018-11-27T17:07:31.098Z,82650.00
2018-11-27T17:12:34.894Z,82670.00
2018-11-27T17:17:38.736Z,82686.00
2018-11-27T17:22:42.537Z,82701.00
2018-11-27T17:27:46.474Z,82706.00
2018-11-27T17:32:50.655Z,82715.00
2018-11-27T17:37:54.512Z,82719.00
2018-11-27T17:42:58.356Z,82722.00
2018-11-27T17:48:02.474Z,82725.00
2018-11-27T17:53:07.424Z,82706.00
2018-11-27T17:58:11.516Z,82735.00
2018-11-27T18:03:15.384Z,82739.00
2018-11-27T18:08:19.162Z,82726.00
2018-11-27T18:13:23.038Z,82728.00
2018-11-27T18:18:27.026Z,82724.00
2018-11-27T18:23:31.131Z,82725.00
2018-11-27T18:28:35.230Z,82723.00
2018-11-27T18:33:39.059Z,82724.00
2018-11-27T18:38:42.896Z,82721.00
2018-11-27T18:43:46.707Z,82713.00
2018-11-27T18:48:50.592Z,82705.00
2018-11-27T18:53:55.123Z,82708.00
2018-11-27T18:58:58.255Z,82695.00
2018-11-27T19:04:02.077Z,82681.00
2018-11-27T19:09:08.823Z,82662.00
2018-11-27T19:14:12.655Z,82644.00
2018-11-27T19:19:16.684Z,82638.00
2018-11-27T19:24:20.721Z,82630.00
2018-11-27T19:29:24.533Z,82613.00
2018-11-27T19:34:28.634Z,82606.00
2018-11-27T19:39:32.459Z,82599.00
2018-11-27T19:44:36.370Z,82590.00
2018-11-27T19:49:40.535Z,82581.00
2018-11-27T19:54:44.637Z,82578.00
2018-11-27T19:59:48.483Z,82572.00
2018-11-27T20:04:52.327Z,82575.00
2018-11-27T20:09:56.418Z,82574.00
2018-11-27T20:15:00.521Z,82576.00
2018-11-27T20:20:05.142Z,82575.00
2018-11-27T20:25:11.413Z,82559.00
2018-11-27T20:30:16.807Z,82551.00
2018-11-27T20:35:20.632Z,82541.00
2018-11-27T20:40:24.498Z,82520.00
2018-11-27T20:45:28.556Z,82517.00
2018-11-27T20:50:32.354Z,82512.00
2018-11-27T20:55:36.311Z,82509.00
2018-11-27T21:00:41.612Z,82501.00
2018-11-27T21:05:45.610Z,82500.00
2018-11-27T21:10:49.411Z,82497.00
2018-11-27T21:15:53.317Z,82494.00
2018-11-27T21:20:57.141Z,82495.00
2018-11-27T21:26:04.918Z,82485.00
2018-11-27T21:31:10.198Z,82494.00
2018-11-27T21:36:14.010Z,82483.00
2018-11-27T21:41:17.834Z,82479.00
2018-11-27T21:46:21.686Z,82480.00
2018-11-27T21:51:25.519Z,82485.00
2018-11-27T21:56:29.579Z,82483.00
2018-11-27T22:01:34.533Z,82475.00
2018-11-27T22:06:37.486Z,82472.00
2018-11-27T22:11:41.532Z,82476.00
2018-11-27T22:16:45.365Z,82467.00
2018-11-27T22:21:49.191Z,82459.00
2018-11-27T22:26:53.078Z,82453.00
2018-11-27T22:31:57.465Z,82452.00
2018-11-27T22:37:01.288Z,82445.00
2018-11-27T22:42:05.614Z,82444.00
2018-11-27T22:47:09.411Z,82439.00
2018-11-27T22:52:13.493Z,82446.00
2018-11-27T22:57:17.300Z,82439.00
2018-11-27T23:02:21.175Z,82449.00
2018-11-27T23:07:30.559Z,82454.00
2018-11-27T23:12:34.610Z,82458.00
2018-11-27T23:17:38.426Z,82461.00
2018-11-27T23:22:42.609Z,82460.00
2018-11-27T23:27:46.422Z,82457.00
2018-11-27T23:32:50.358Z,82455.00
2018-11-27T23:37:54.229Z,82446.00
2018-11-27T23:42:58.587Z,82452.00
2018-11-27T23:48:02.419Z,82458.00
2018-11-27T23:53:06.599Z,82455.00
2018-11-27T23:58:10.463Z,82463.00
